Time;durP1;ratioP1;P1;durP2;ratioP2;P2;SDS_P1;SDS_P2;PMS_P1;PMS_P2;Temp;Humidity;BMP_temperature;BMP_pressure;BME280_temperature;BME280_humidity;BME280_pressure;Samples;Min_cycle;Max_cycle;Signal;HPM_P1;HPM_P2
2021/08/19 00:00:46;;;;;;;3.10;2.43;;;17.70;99.60;;;;;;5116166;28;20436;-64
2021/08/19 00:03:12;;;;;;;5.37;2.80;;;17.60;99.70;;;;;;5116510;28;20172;-64
2021/08/19 00:05:38;;;;;;;4.50;2.50;;;17.70;99.80;;;;;;5116127;28;20199;-66
2021/08/19 00:08:03;;;;;;;3.80;2.77;;;17.60;99.80;;;;;;5116459;28;20187;-65
2021/08/19 00:10:29;;;;;;;6.63;2.47;;;17.60;99.90;;;;;;5115984;28;20206;-64
2021/08/19 00:12:55;;;;;;;4.27;2.60;;;17.50;99.90;;;;;;5116222;28;20186;-65
2021/08/19 00:15:21;;;;;;;3.70;2.90;;;17.50;99.90;;;;;;5115871;28;20649;-64
2021/08/19 00:17:46;;;;;;;4.40;2.90;;;17.40;99.90;;;;;;5116121;28;20271;-64
2021/08/19 00:20:12;;;;;;;3.73;3.03;;;17.40;99.90;;;;;;5115675;28;20416;-64
2021/08/19 00:22:38;;;;;;;3.47;2.70;;;17.40;99.90;;;;;;5115833;28;20259;-64
2021/08/19 00:25:05;;;;;;;4.90;2.77;;;17.40;99.90;;;;;;5114400;28;20424;-64
2021/08/19 00:27:30;;;;;;;5.20;3.00;;;17.30;99.90;;;;;;5115996;28;20172;-64
2021/08/19 00:29:56;;;;;;;4.33;3.30;;;17.30;99.90;;;;;;5115489;28;20489;-64
2021/08/19 00:32:23;;;;;;;4.57;2.50;;;17.30;99.90;;;;;;5115907;28;20180;-64
2021/08/19 00:34:48;;;;;;;8.30;2.97;;;17.30;99.90;;;;;;5114979;28;20196;-64
2021/08/19 00:37:14;;;;;;;4.07;2.70;;;17.30;99.90;;;;;;5114080;28;20980;-64
2021/08/19 00:39:40;;;;;;;5.37;3.30;;;17.20;99.90;;;;;;5115422;28;20199;-64
2021/08/19 00:42:06;;;;;;;4.77;3.07;;;17.20;99.90;;;;;;5114091;28;20248;-64
2021/08/19 00:44:33;;;;;;;5.53;3.60;;;17.20;99.90;;;;;;5115231;28;20419;-64
2021/08/19 00:46:58;;;;;;;5.80;2.90;;;17.10;99.90;;;;;;5115348;28;20799;-64
2021/08/19 00:49:24;;;;;;;4.70;2.87;;;17.10;99.90;;;;;;5115203;28;20404;-64
2021/08/19 00:51:52;;;;;;;3.50;3.00;;;17.10;99.90;;;;;;5115263;28;20182;-64
2021/08/19 00:54:23;;;;;;;4.30;2.90;;;17.00;99.90;;;;;;5115098;28;20191;-64
2021/08/19 00:56:57;;;;;;;4.00;3.60;;;17.00;99.90;;;;;;5115247;28;20503;-64
2021/08/19 00:59:25;;;;;;;4.57;2.63;;;17.00;99.90;;;;;;5115221;27;20913;-64
2021/08/19 01:01:57;;;;;;;7.50;3.90;;;16.90;99.90;;;;;;5115185;27;20447;-64
2021/08/19 01:04:23;;;;;;;5.13;3.40;;;16.80;99.90;;;;;;5114956;28;20393;-64
2021/08/19 01:06:49;;;;;;;5.70;3.43;;;16.80;99.90;;;;;;5115037;28;20495;-64
2021/08/19 01:09:16;;;;;;;6.30;3.13;;;16.70;99.90;;;;;;5114759;28;20187;-65
2021/08/19 01:11:43;;;;;;;6.33;3.10;;;16.70;99.90;;;;;;5114949;28;20229;-65
2021/08/19 01:14:16;;;;;;;7.10;3.00;;;16.60;99.90;;;;;;5114832;28;20901;-64
2021/08/19 01:16:43;;;;;;;5.87;3.03;;;16.60;99.90;;;;;;5114664;27;20486;-64
2021/08/19 01:19:21;;;;;;;4.90;2.97;;;16.50;99.90;;;;;;5114688;28;20451;-65
2021/08/19 01:21:52;;;;;;;4.23;3.30;;;16.50;99.90;;;;;;5113442;28;20579;-64
2021/08/19 01:24:18;;;;;;;4.40;3.03;;;16.50;99.90;;;;;;5113267;28;20547;-64
2021/08/19 01:26:46;;;;;;;4.30;3.23;;;16.40;99.90;;;;;;5114725;28;20466;-64
2021/08/19 01:29:12;;;;;;;6.57;3.63;;;16.40;99.90;;;;;;5114568;28;20464;-64
2021/08/19 01:31:38;;;;;;;4.80;3.20;;;16.40;99.90;;;;;;5114400;28;20898;-64
2021/08/19 01:34:04;;;;;;;6.70;2.80;;;16.40;99.90;;;;;;5114449;28;20599;-64
2021/08/19 01:36:29;;;;;;;6.20;3.27;;;16.30;99.90;;;;;;5114242;28;20256;-64
2021/08/19 01:38:55;;;;;;;8.90;3.43;;;16.40;99.90;;;;;;5114355;28;20797;-64
2021/08/19 01:41:21;;;;;;;6.40;3.30;;;16.30;99.90;;;;;;5114258;28;20198;-64
2021/08/19 01:43:51;;;;;;;3.37;2.67;;;16.30;99.90;;;;;;5114404;28;20417;-64
2021/08/19 01:46:19;;;;;;;7.90;3.67;;;16.30;99.90;;;;;;5112475;28;20459;-64
2021/08/19 01:48:45;;;;;;;4.90;3.37;;;16.20;99.90;;;;;;5114333;28;20423;-65
2021/08/19 01:51:19;;;;;;;4.40;3.73;;;16.20;99.90;;;;;;5112881;28;20432;-64
2021/08/19 01:53:49;;;;;;;5.30;3.57;;;16.20;99.90;;;;;;5114405;28;20905;-64
2021/08/19 01:56:18;;;;;;;5.70;3.23;;;16.20;99.90;;;;;;5114089;28;20451;-64
2021/08/19 01:58:44;;;;;;;5.07;3.20;;;16.10;99.90;;;;;;5114217;28;20405;-65
2021/08/19 02:01:10;;;;;;;8.70;3.23;;;16.10;99.90;;;;;;5112771;28;20440;-64
2021/08/19 02:03:36;;;;;;;6.13;3.13;;;16.10;99.90;;;;;;5114667;28;20900;-64
2021/08/19 02:06:02;;;;;;;6.13;3.30;;;16.10;99.90;;;;;;5114017;28;20196;-64
2021/08/19 02:08:27;;;;;;;3.93;2.93;;;16.10;99.90;;;;;;5114584;28;20506;-64
2021/08/19 02:10:53;;;;;;;7.17;3.90;;;16.00;99.90;;;;;;5114074;28;20188;-64
2021/08/19 02:13:19;;;;;;;5.90;3.53;;;16.00;99.90;;;;;;5112645;28;20187;-65
2021/08/19 02:15:44;;;;;;;5.23;3.90;;;16.00;99.90;;;;;;5113832;28;20196;-64
2021/08/19 02:18:10;;;;;;;5.47;4.20;;;16.00;99.90;;;;;;5114369;28;20179;-66
2021/08/19 02:20:37;;;;;;;5.10;3.53;;;16.00;99.90;;;;;;5112616;28;20204;-65
2021/08/19 02:23:04;;;;;;;5.10;3.47;;;16.00;99.90;;;;;;5113988;28;20711;-66
2021/08/19 02:25:30;;;;;;;4.20;3.50;;;16.00;99.90;;;;;;5113906;28;20420;-64
2021/08/19 02:27:58;;;;;;;5.63;3.40;;;16.10;99.90;;;;;;5114286;28;20412;-64
2021/08/19 02:30:23;;;;;;;7.27;3.90;;;16.00;99.90;;;;;;5113731;27;20439;-64
2021/08/19 02:32:56;;;;;;;6.37;4.23;;;16.00;99.90;;;;;;5114157;28;20416;-64
2021/08/19 02:35:26;;;;;;;8.60;4.37;;;16.10;99.90;;;;;;5114083;28;20600;-64
2021/08/19 02:37:56;;;;;;;6.23;3.90;;;16.10;99.90;;;;;;5114148;28;20467;-64
2021/08/19 02:40:24;;;;;;;7.43;3.83;;;16.00;99.90;;;;;;5113877;28;20420;-64
2021/08/19 02:42:50;;;;;;;4.13;3.67;;;16.00;99.90;;;;;;5114086;28;20499;-64
2021/08/19 02:45:16;;;;;;;6.13;3.60;;;16.00;99.90;;;;;;5113610;28;20523;-65
2021/08/19 02:47:42;;;;;;;5.37;3.80;;;16.00;99.90;;;;;;5113961;28;20447;-64
2021/08/19 02:50:08;;;;;;;8.10;4.17;;;16.00;99.90;;;;;;5113667;28;20196;-64
2021/08/19 02:52:34;;;;;;;5.23;4.10;;;16.00;99.90;;;;;;5113909;28;20168;-64
2021/08/19 02:55:00;;;;;;;6.00;3.93;;;16.00;99.90;;;;;;5112196;28;20435;-64
2021/08/19 02:57:25;;;;;;;6.60;4.37;;;16.00;99.90;;;;;;5112666;28;20279;-64
2021/08/19 02:59:51;;;;;;;5.80;3.90;;;16.00;99.90;;;;;;5117342;28;20199;-64
2021/08/19 03:02:17;;;;;;;5.83;3.87;;;16.00;99.90;;;;;;5117500;28;20183;-64
2021/08/19 03:04:42;;;;;;;7.60;3.90;;;16.00;99.90;;;;;;5115971;28;20700;-64
2021/08/19 03:07:09;;;;;;;8.53;4.20;;;16.00;99.90;;;;;;5117437;28;20172;-64
2021/08/19 03:09:35;;;;;;;6.20;4.27;;;16.00;99.90;;;;;;5117193;28;20184;-65
2021/08/19 03:12:01;;;;;;;5.77;4.33;;;16.00;99.90;;;;;;5117197;28;20506;-65
2021/08/19 03:14:27;;;;;;;6.50;4.07;;;16.00;99.90;;;;;;5117126;28;20407;-64
2021/08/19 03:16:54;;;;;;;5.50;3.67;;;16.10;99.90;;;;;;5117135;28;20822;-64
2021/08/19 03:19:19;;;;;;;5.87;4.00;;;16.10;99.90;;;;;;5117004;28;20184;-63
2021/08/19 03:21:45;;;;;;;6.23;3.47;;;16.20;99.90;;;;;;5117103;28;20730;-65
2021/08/19 03:24:11;;;;;;;6.60;4.53;;;16.20;99.90;;;;;;5116944;28;20263;-64
2021/08/19 03:26:36;;;;;;;6.00;4.10;;;16.30;99.90;;;;;;5115515;28;20199;-64
2021/08/19 03:29:02;;;;;;;10.13;4.63;;;16.30;99.90;;;;;;5115629;28;20586;-65
2021/08/19 03:31:27;;;;;;;7.33;4.60;;;16.30;99.90;;;;;;5116697;28;20192;-66
2021/08/19 03:33:53;;;;;;;6.03;4.67;;;16.40;99.90;;;;;;5115527;28;20605;-64
2021/08/19 03:36:19;;;;;;;8.03;4.50;;;16.40;99.90;;;;;;5115170;28;20250;-66
2021/08/19 03:38:45;;;;;;;21.73;10.83;;;16.50;99.90;;;;;;5116654;27;20168;-64
2021/08/19 03:41:14;;;;;;;17.67;10.97;;;16.50;99.90;;;;;;5116442;28;20424;-64
2021/08/19 03:43:40;;;;;;;6.40;5.00;;;16.50;99.90;;;;;;5117031;27;20179;-64
2021/08/19 03:46:06;;;;;;;6.70;4.50;;;16.50;99.90;;;;;;5116363;28;20849;-64
2021/08/19 03:48:31;;;;;;;6.67;4.83;;;16.50;99.90;;;;;;5116922;28;20168;-64
2021/08/19 03:50:59;;;;;;;8.60;4.13;;;16.50;99.90;;;;;;5116307;28;20287;-64
2021/08/19 03:53:25;;;;;;;10.13;5.17;;;16.50;99.90;;;;;;5110836;27;20524;-65
2021/08/19 03:55:51;;;;;;;6.23;4.57;;;16.50;99.90;;;;;;5115333;28;20427;-64
2021/08/19 03:58:16;;;;;;;9.17;5.27;;;16.50;99.90;;;;;;5114495;28;20416;-66
2021/08/19 04:00:42;;;;;;;6.10;4.10;;;16.50;99.90;;;;;;5116151;28;20200;-65
2021/08/19 04:03:08;;;;;;;10.97;5.17;;;16.50;99.90;;;;;;5115109;28;20179;-66
2021/08/19 04:05:34;;;;;;;7.47;5.27;;;16.50;99.90;;;;;;5116110;27;20200;-65
2021/08/19 04:07:59;;;;;;;11.63;5.30;;;16.50;99.90;;;;;;5116397;28;20908;-65
2021/08/19 04:10:25;;;;;;;10.13;4.73;;;16.50;99.90;;;;;;5113662;28;20200;-65
2021/08/19 04:12:50;;;;;;;7.13;4.20;;;16.60;99.90;;;;;;5114874;28;20207;-64
2021/08/19 04:15:16;;;;;;;8.80;5.33;;;16.60;99.90;;;;;;5115884;28;20199;-65
2021/08/19 04:17:42;;;;;;;10.80;4.97;;;16.60;99.90;;;;;;5116148;28;20268;-65
2021/08/19 04:20:08;;;;;;;11.20;5.27;;;16.60;99.90;;;;;;5115722;28;20244;-65
2021/08/19 04:22:34;;;;;;;11.67;5.47;;;16.60;99.90;;;;;;5114141;28;20288;-66
2021/08/19 04:25:00;;;;;;;9.27;6.20;;;16.60;99.90;;;;;;5115666;28;20913;-65
2021/08/19 04:27:26;;;;;;;11.90;6.23;;;16.70;99.90;;;;;;5115783;28;20411;-65
2021/08/19 04:29:51;;;;;;;9.00;5.77;;;16.70;99.90;;;;;;5115580;28;20933;-64
2021/08/19 04:32:17;;;;;;;16.07;6.47;;;16.70;99.90;;;;;;5115472;28;20539;-65
2021/08/19 04:34:43;;;;;;;8.40;5.23;;;16.70;99.90;;;;;;5106286;28;20199;-65
2021/08/19 04:37:09;;;;;;;6.73;4.80;;;16.80;99.90;;;;;;5113800;28;20722;-64
2021/08/19 04:39:34;;;;;;;9.77;6.87;;;16.80;99.90;;;;;;5099525;28;20224;-65
2021/08/19 04:42:00;;;;;;;8.50;4.93;;;16.80;99.90;;;;;;5113341;28;20605;-65
2021/08/19 04:44:25;;;;;;;11.17;4.90;;;16.90;99.90;;;;;;5107746;28;20241;-65
2021/08/19 04:46:51;;;;;;;8.97;5.80;;;16.90;99.90;;;;;;5096070;28;20188;-65
2021/08/19 04:49:17;;;;;;;12.33;6.87;;;16.90;99.90;;;;;;5097318;28;20230;-64
2021/08/19 04:51:43;;;;;;;11.37;6.33;;;16.90;99.90;;;;;;5132764;27;20267;-65
2021/08/19 04:54:09;;;;;;;9.83;5.87;;;16.90;99.90;;;;;;5103327;28;20646;-66
2021/08/19 04:56:37;;;;;;;10.13;5.63;;;17.00;99.90;;;;;;5101293;28;20511;-65
2021/08/19 04:59:08;;;;;;;6.87;4.77;;;17.00;99.90;;;;;;5128990;27;20271;-64
2021/08/19 05:01:34;;;;;;;8.60;5.17;;;17.00;99.90;;;;;;5101598;28;20440;-65
2021/08/19 05:03:59;;;;;;;10.00;5.00;;;17.00;99.90;;;;;;5100829;28;20430;-65
2021/08/19 05:06:30;;;;;;;9.20;6.00;;;17.10;99.90;;;;;;5101033;28;20428;-64
2021/08/19 05:08:56;;;;;;;9.43;5.77;;;17.10;99.90;;;;;;5102843;28;20191;-66
2021/08/19 05:11:23;;;;;;;57.47;12.00;;;17.20;99.90;;;;;;5101157;28;20444;-65
2021/08/19 05:13:50;;;;;;;14.90;6.20;;;17.20;99.90;;;;;;5137472;27;20478;-65
2021/08/19 05:16:15;;;;;;;9.70;6.00;;;17.30;99.90;;;;;;5105086;28;20471;-65
2021/08/19 05:18:43;;;;;;;22.80;5.87;;;17.30;99.90;;;;;;5106213;28;20428;-66
2021/08/19 05:21:09;;;;;;;8.50;5.23;;;17.30;99.90;;;;;;5109790;27;20290;-65
2021/08/19 05:23:34;;;;;;;9.60;5.10;;;17.40;99.90;;;;;;5103639;28;20549;-64
2021/08/19 05:26:00;;;;;;;9.70;4.60;;;17.40;99.90;;;;;;5103990;28;20543;-64
2021/08/19 05:28:44;;;;;;;7.63;4.20;;;17.50;99.90;;;;;;5107380;28;20178;-65
2021/08/19 05:31:11;;;;;;;10.93;5.23;;;17.50;99.90;;;;;;5108739;28;20581;-65
2021/08/19 05:33:37;;;;;;;8.90;6.00;;;17.60;99.90;;;;;;5103978;28;20425;-65
2021/08/19 05:36:08;;;;;;;8.27;5.27;;;17.70;99.90;;;;;;5100847;28;20451;-64
2021/08/19 05:38:33;;;;;;;10.47;5.70;;;17.80;99.90;;;;;;5130377;27;20523;-64
2021/08/19 05:40:59;;;;;;;12.83;7.80;;;17.80;99.90;;;;;;5105141;28;20548;-65
2021/08/19 05:43:24;;;;;;;275.23;156.63;;;17.90;99.90;;;;;;5110603;28;20189;-65
2021/08/19 05:45:50;;;;;;;10.23;6.10;;;18.00;99.90;;;;;;5096846;28;20543;-65
2021/08/19 05:48:16;;;;;;;9.60;6.40;;;18.10;99.90;;;;;;5112028;28;20240;-65
2021/08/19 05:50:41;;;;;;;7.83;4.90;;;18.10;99.90;;;;;;5096602;28;20208;-64
2021/08/19 05:53:07;;;;;;;6.50;4.13;;;18.30;99.90;;;;;;5108967;28;20549;-65
2021/08/19 05:55:36;;;;;;;8.10;5.07;;;18.30;99.90;;;;;;5106007;28;20200;-65
2021/08/19 05:58:01;;;;;;;9.70;4.60;;;18.50;99.90;;;;;;5109006;28;20241;-65
2021/08/19 06:00:27;;;;;;;7.33;4.43;;;18.60;99.90;;;;;;5105091;28;20443;-65
2021/08/19 06:02:53;;;;;;;8.37;5.10;;;18.70;99.90;;;;;;5110155;28;20183;-65
2021/08/19 06:05:19;;;;;;;8.80;4.53;;;18.80;99.90;;;;;;5104648;28;20203;-65
2021/08/19 06:07:45;;;;;;;8.63;4.90;;;18.90;99.90;;;;;;5104214;28;20176;-65
2021/08/19 06:10:11;;;;;;;7.10;5.13;;;19.00;99.90;;;;;;5139799;27;20448;-65
2021/08/19 06:12:38;;;;;;;7.63;4.40;;;19.10;99.90;;;;;;5106821;28;20420;-65
2021/08/19 06:15:05;;;;;;;7.43;4.70;;;19.20;99.90;;;;;;5102866;28;20441;-65
2021/08/19 06:17:33;;;;;;;10.80;5.07;;;19.30;99.90;;;;;;5104776;28;20541;-65
2021/08/19 06:19:59;;;;;;;9.73;5.10;;;19.50;99.90;;;;;;5135940;27;20447;-65
2021/08/19 06:22:24;;;;;;;11.17;5.37;;;19.60;99.90;;;;;;5106901;28;20424;-65
2021/08/19 06:24:50;;;;;;;5.10;4.33;;;19.70;99.90;;;;;;5104077;28;20468;-66
2021/08/19 06:27:15;;;;;;;7.40;5.50;;;19.80;99.90;;;;;;5110753;28;20262;-65
2021/08/19 06:29:41;;;;;;;7.93;4.70;;;19.90;99.90;;;;;;5107271;28;20215;-66
2021/08/19 06:32:06;;;;;;;9.53;5.60;;;20.00;99.90;;;;;;5104500;28;20185;-65
2021/08/19 06:34:34;;;;;;;7.37;4.93;;;20.10;99.90;;;;;;5111257;28;20297;-65
2021/08/19 06:37:00;;;;;;;6.13;4.93;;;20.20;99.90;;;;;;5106331;28;20211;-65
2021/08/19 06:39:25;;;;;;;5.77;3.80;;;20.30;99.90;;;;;;5103710;28;20405;-65
2021/08/19 06:41:51;;;;;;;7.23;4.80;;;20.40;99.90;;;;;;5099140;28;20182;-65
2021/08/19 06:44:17;;;;;;;7.00;4.40;;;20.50;99.90;;;;;;5098778;28;20192;-65
2021/08/19 06:46:42;;;;;;;4.07;3.27;;;20.60;99.90;;;;;;5102942;28;20184;-65
2021/08/19 06:49:08;;;;;;;6.30;3.90;;;20.70;99.90;;;;;;5109455;28;20190;-65
2021/08/19 06:51:33;;;;;;;6.00;4.37;;;20.80;99.90;;;;;;5112513;28;20206;-65
2021/08/19 06:53:59;;;;;;;7.07;3.93;;;20.90;99.90;;;;;;5101026;28;20183;-65
2021/08/19 06:56:25;;;;;;;5.33;3.50;;;21.00;99.90;;;;;;5098948;28;20231;-66
2021/08/19 06:58:51;;;;;;;6.77;4.10;;;21.00;99.90;;;;;;5107101;28;20655;-66
2021/08/19 07:01:16;;;;;;;6.23;3.90;;;21.20;99.90;;;;;;5103778;27;20481;-65
2021/08/19 07:03:42;;;;;;;6.87;4.20;;;21.30;99.90;;;;;;5116726;28;20192;-66
2021/08/19 07:06:14;;;;;;;5.70;3.53;;;21.30;99.90;;;;;;5112315;28;20218;-66
2021/08/19 07:08:40;;;;;;;5.17;3.70;;;21.40;99.90;;;;;;5103709;28;20215;-66
2021/08/19 07:11:06;;;;;;;6.73;4.00;;;21.50;99.90;;;;;;5111782;28;20522;-65
2021/08/19 07:13:32;;;;;;;5.50;3.40;;;21.50;99.90;;;;;;5105591;28;20416;-65
2021/08/19 07:15:57;;;;;;;4.70;3.60;;;21.60;99.90;;;;;;5110496;28;20211;-65
2021/08/19 07:18:23;;;;;;;6.00;4.07;;;21.70;99.90;;;;;;5105255;28;20184;-65
2021/08/19 07:20:48;;;;;;;5.80;3.50;;;21.80;99.90;;;;;;5102373;28;20222;-66
2021/08/19 07:23:14;;;;;;;6.70;4.50;;;21.90;99.90;;;;;;5108812;28;20693;-65
2021/08/19 07:25:40;;;;;;;5.00;3.57;;;22.00;99.90;;;;;;5104573;28;20212;-65
2021/08/19 07:28:06;;;;;;;4.03;3.10;;;22.10;99.90;;;;;;5097034;28;20728;-64
2021/08/19 07:30:32;;;;;;;7.30;3.90;;;22.10;99.90;;;;;;5105185;28;20531;-65
2021/08/19 07:32:58;;;;;;;6.00;4.20;;;22.20;99.90;;;;;;5105109;28;20650;-66
2021/08/19 07:35:24;;;;;;;4.63;4.03;;;22.30;99.90;;;;;;5105596;28;20213;-65
2021/08/19 07:37:52;;;;;;;5.30;3.47;;;22.30;99.90;;;;;;5115266;28;20467;-65
2021/08/19 07:40:20;;;;;;;6.57;3.33;;;22.40;99.90;;;;;;5095520;28;20211;-67
2021/08/19 07:42:46;;;;;;;5.43;3.83;;;22.50;99.90;;;;;;5098011;28;20456;-66
2021/08/19 07:45:14;;;;;;;4.47;3.00;;;22.50;99.90;;;;;;5103113;28;20474;-65
2021/08/19 07:47:40;;;;;;;4.30;3.60;;;22.60;99.90;;;;;;5100795;28;20576;-66
2021/08/19 07:50:07;;;;;;;4.20;3.03;;;22.70;99.90;;;;;;5108366;28;20484;-66
2021/08/19 07:52:33;;;;;;;6.27;3.30;;;22.80;99.90;;;;;;5109126;28;20960;-65
2021/08/19 07:54:59;;;;;;;4.93;3.50;;;22.90;99.90;;;;;;5111195;28;20979;-66
2021/08/19 07:57:24;;;;;;;4.43;3.40;;;22.90;99.90;;;;;;5095857;28;20483;-66
2021/08/19 07:59:50;;;;;;;4.47;3.27;;;23.00;99.70;;;;;;5101382;28;20249;-65
2021/08/19 08:02:16;;;;;;;5.37;2.47;;;23.10;99.80;;;;;;5136453;27;20187;-65
2021/08/19 08:04:41;;;;;;;3.80;2.30;;;23.10;99.70;;;;;;5100405;28;20444;-65
2021/08/19 08:07:07;;;;;;;5.20;2.90;;;23.20;99.50;;;;;;5105678;28;20180;-65
2021/08/19 08:09:32;;;;;;;2.80;2.53;;;23.30;99.30;;;;;;5111592;28;20204;-67
2021/08/19 08:11:59;;;;;;;3.90;2.53;;;23.40;99.10;;;;;;5107481;28;20663;-65
2021/08/19 08:14:25;;;;;;;2.73;2.33;;;23.40;98.90;;;;;;5102523;28;20181;-67
2021/08/19 08:16:51;;;;;;;2.70;2.20;;;23.50;99.00;;;;;;5115314;28;20615;-65
2021/08/19 08:19:17;;;;;;;2.30;2.10;;;23.60;99.00;;;;;;5109258;28;20183;-65
2021/08/19 08:21:43;;;;;;;2.80;2.13;;;23.70;98.80;;;;;;5104287;28;20241;-66
2021/08/19 08:24:10;;;;;;;4.03;2.73;;;23.70;98.60;;;;;;5097589;28;20973;-65
2021/08/19 08:26:36;;;;;;;4.00;2.67;;;23.80;98.40;;;;;;5132349;27;20488;-65
2021/08/19 08:29:02;;;;;;;3.90;3.20;;;23.90;98.50;;;;;;5099061;28;20506;-67
2021/08/19 08:31:29;;;;;;;2.40;2.20;;;24.00;98.20;;;;;;5098360;28;20895;-66
2021/08/19 08:33:54;;;;;;;3.30;2.40;;;24.10;98.00;;;;;;5108599;28;20313;-66
2021/08/19 08:36:22;;;;;;;5.17;2.70;;;24.20;97.90;;;;;;5139324;27;20574;-66
2021/08/19 08:38:48;;;;;;;3.03;2.23;;;24.20;97.60;;;;;;5101681;28;20203;-66
2021/08/19 08:41:19;;;;;;;3.43;2.70;;;24.30;97.20;;;;;;5100329;28;20827;-66
2021/08/19 08:43:46;;;;;;;2.70;2.30;;;24.40;97.60;;;;;;5137272;27;20848;-65
2021/08/19 08:46:15;;;;;;;2.73;2.23;;;24.40;97.40;;;;;;5106509;28;20862;-65
2021/08/19 08:48:43;;;;;;;2.40;2.20;;;24.50;97.40;;;;;;5106642;28;20428;-66
2021/08/19 08:51:09;;;;;;;4.20;2.77;;;24.60;97.20;;;;;;5102852;28;20861;-66
2021/08/19 08:53:35;;;;;;;2.70;2.50;;;24.60;97.10;;;;;;5095946;28;20526;-66
2021/08/19 08:56:01;;;;;;;2.87;2.17;;;24.70;96.80;;;;;;5097605;28;20530;-66
2021/08/19 08:58:27;;;;;;;2.70;2.50;;;24.80;96.80;;;;;;5097127;28;20434;-65
2021/08/19 09:00:52;;;;;;;2.33;2.13;;;24.90;96.80;;;;;;5129337;27;20453;-65
2021/08/19 09:03:20;;;;;;;3.00;2.70;;;25.00;96.40;;;;;;5102784;28;20186;-65
2021/08/19 09:05:51;;;;;;;2.70;2.30;;;25.10;96.40;;;;;;5097617;28;20627;-66
2021/08/19 09:08:17;;;;;;;4.60;2.53;;;25.30;96.00;;;;;;5095663;28;20445;-66
2021/08/19 09:10:45;;;;;;;2.30;2.10;;;25.40;96.00;;;;;;5110212;28;20456;-67
2021/08/19 09:13:16;;;;;;;2.50;2.30;;;25.60;95.80;;;;;;5137240;27;20452;-66
2021/08/19 09:15:43;;;;;;;2.00;1.80;;;25.80;95.60;;;;;;5105930;28;20450;-66
2021/08/19 09:18:10;;;;;;;2.33;2.13;;;25.80;95.50;;;;;;5107261;28;20501;-65
2021/08/19 09:20:43;;;;;;;4.07;2.40;;;25.80;95.50;;;;;;5105254;28;20453;-65
2021/08/19 09:23:11;;;;;;;2.27;2.07;;;25.80;95.40;;;;;;5100679;28;20476;-66
2021/08/19 09:25:42;;;;;;;3.50;2.13;;;25.80;95.10;;;;;;5097426;28;20975;-67
2021/08/19 09:28:11;;;;;;;3.90;2.17;;;25.70;95.30;;;;;;5098920;28;20976;-65
2021/08/19 09:30:39;;;;;;;3.40;2.30;;;25.70;95.30;;;;;;5098961;28;20489;-64
2021/08/19 09:33:09;;;;;;;3.10;2.73;;;25.70;95.40;;;;;;5101192;28;20436;-65
2021/08/19 09:35:35;;;;;;;2.70;2.37;;;25.70;95.30;;;;;;5107618;28;20483;-65
2021/08/19 09:38:06;;;;;;;3.13;2.70;;;25.70;95.10;;;;;;5105213;28;20536;-64
2021/08/19 09:40:32;;;;;;;2.60;2.30;;;25.70;95.10;;;;;;5100883;28;20479;-64
2021/08/19 09:42:58;;;;;;;1.90;1.73;;;25.60;95.20;;;;;;5101988;28;20465;-66
2021/08/19 09:45:24;;;;;;;3.13;2.30;;;25.60;95.20;;;;;;5102468;28;20685;-65
2021/08/19 09:47:51;;;;;;;3.23;2.57;;;25.50;95.20;;;;;;5104988;28;20179;-64
2021/08/19 09:50:24;;;;;;;3.30;2.23;;;25.50;95.10;;;;;;5097765;28;20444;-65
2021/08/19 09:52:51;;;;;;;3.20;2.53;;;25.50;95.00;;;;;;5091781;28;21159;-65
2021/08/19 09:55:21;;;;;;;3.50;2.43;;;25.40;94.50;;;;;;5094440;28;20448;-66
2021/08/19 09:57:47;;;;;;;3.10;2.60;;;25.40;94.20;;;;;;5109467;28;20513;-65
2021/08/19 10:00:38;;;;;;;3.60;2.57;;;25.50;93.80;;;;;;5128001;27;20487;-66
2021/08/19 10:03:04;;;;;;;2.63;1.90;;;25.50;94.60;;;;;;5107213;28;20442;-65
2021/08/19 10:05:30;;;;;;;2.67;2.33;;;25.50;94.70;;;;;;5105289;28;20507;-66
2021/08/19 10:07:58;;;;;;;2.90;2.40;;;25.50;94.60;;;;;;5101758;28;20426;-65
2021/08/19 10:10:26;;;;;;;3.83;2.83;;;25.60;94.90;;;;;;5101224;28;20457;-65
2021/08/19 10:12:53;;;;;;;2.37;2.00;;;25.70;93.80;;;;;;5111944;28;20419;-65
2021/08/19 10:15:20;;;;;;;2.77;2.30;;;25.80;93.10;;;;;;5096504;28;20447;-67
2021/08/19 10:17:49;;;;;;;3.63;2.47;;;25.90;93.30;;;;;;5098120;28;20494;-66
2021/08/19 10:20:36;;;;;;;2.90;2.07;;;26.00;93.50;;;;;;5102195;28;20443;-66
2021/08/19 10:23:02;;;;;;;3.23;2.00;;;26.10;93.10;;;;;;5108172;28;20471;-66
2021/08/19 10:25:28;;;;;;;3.20;2.23;;;26.10;93.20;;;;;;5104432;28;20479;-66
2021/08/19 10:28:17;;;;;;;2.97;2.00;;;26.20;92.50;;;;;;5110079;28;20941;-66
2021/08/19 10:30:53;;;;;;;3.70;2.50;;;26.40;92.40;;;;;;5100823;28;20203;-66
2021/08/19 10:33:37;;;;;;;4.13;2.40;;;26.40;92.50;;;;;;5101081;28;20430;-67
2021/08/19 10:36:12;;;;;;;3.20;2.20;;;26.50;92.10;;;;;;5102468;28;20861;-66
2021/08/19 10:38:39;;;;;;;2.10;1.93;;;26.50;91.60;;;;;;5103466;28;20878;-67
2021/08/19 10:41:30;;;;;;;2.37;1.80;;;26.50;91.40;;;;;;5136104;27;20453;-67
2021/08/19 10:44:09;;;;;;;2.23;1.90;;;26.40;91.70;;;;;;5100147;28;20420;-65
2021/08/19 10:46:40;;;;;;;2.90;1.53;;;26.40;91.50;;;;;;5104720;28;20619;-67
2021/08/19 10:49:06;;;;;;;2.80;2.00;;;26.40;91.30;;;;;;5105014;28;20432;-66
2021/08/19 10:51:31;;;;;;;2.37;2.17;;;26.30;91.00;;;;;;5101512;28;20824;-65
2021/08/19 10:53:57;;;;;;;2.50;1.73;;;26.30;90.80;;;;;;5103477;28;20431;-67
2021/08/19 10:56:44;;;;;;;2.67;1.80;;;26.30;91.20;;;;;;5095674;28;20322;-67
2021/08/19 10:59:32;;;;;;;2.33;2.13;;;26.30;91.10;;;;;;5087808;28;20704;-66
2021/08/19 11:01:59;;;;;;;2.53;2.17;;;26.20;91.20;;;;;;5103620;28;20439;-66
2021/08/19 11:04:46;;;;;;;2.83;2.20;;;26.30;91.30;;;;;;5105709;28;20415;-66
2021/08/19 11:07:45;;;;;;;2.37;1.87;;;26.30;91.40;;;;;;5106740;28;20431;-65
2021/08/19 11:10:11;;;;;;;3.00;2.20;;;26.30;91.40;;;;;;5105340;28;20503;-66
2021/08/19 11:12:37;;;;;;;2.17;1.97;;;26.30;91.30;;;;;;5105064;28;20761;-66
2021/08/19 11:15:03;;;;;;;1.50;1.40;;;26.30;91.20;;;;;;5107952;28;20451;-67
2021/08/19 11:17:29;;;;;;;3.47;2.23;;;26.30;91.10;;;;;;5112314;28;20553;-67
2021/08/19 11:19:54;;;;;;;2.20;1.73;;;26.20;91.00;;;;;;5105547;28;20448;-68
2021/08/19 11:22:21;;;;;;;1.93;1.77;;;26.20;91.00;;;;;;5105423;28;20202;-68
2021/08/19 11:24:47;;;;;;;2.27;1.97;;;26.20;90.80;;;;;;5095550;28;20228;-65
2021/08/19 11:27:13;;;;;;;6.40;1.90;;;26.10;90.40;;;;;;5104466;28;20759;-67
2021/08/19 11:29:41;;;;;;;2.00;1.77;;;26.10;90.30;;;;;;5106153;28;20247;-67
2021/08/19 11:32:12;;;;;;;1.67;1.53;;;26.10;90.00;;;;;;5104777;28;20431;-66
2021/08/19 11:34:47;;;;;;;1.60;1.50;;;26.10;90.00;;;;;;5096902;28;20450;-66
2021/08/19 11:37:34;;;;;;;1.87;1.67;;;26.10;90.10;;;;;;5100441;28;20480;-66
2021/08/19 11:40:00;;;;;;;3.37;2.20;;;26.10;90.00;;;;;;5103025;28;20963;-66
2021/08/19 11:42:32;;;;;;;1.50;1.40;;;26.20;90.00;;;;;;5105196;28;20421;-66
2021/08/19 11:45:19;;;;;;;2.00;1.90;;;26.20;90.10;;;;;;5100729;28;20451;-66
2021/08/19 11:47:46;;;;;;;2.77;1.77;;;26.40;90.60;;;;;;5110248;28;20451;-66
2021/08/19 11:50:12;;;;;;;2.03;1.70;;;26.40;90.60;;;;;;5106652;28;20494;-67
2021/08/19 11:52:37;;;;;;;3.60;1.63;;;26.50;90.00;;;;;;5103143;28;20429;-66
2021/08/19 11:55:03;;;;;;;2.63;2.17;;;26.60;90.20;;;;;;5104017;28;20275;-67
2021/08/19 11:57:29;;;;;;;3.70;1.77;;;26.70;90.40;;;;;;5108306;28;20569;-64
2021/08/19 12:00:08;;;;;;;2.03;1.83;;;26.80;90.10;;;;;;5104117;28;20437;-66
2021/08/19 12:02:34;;;;;;;4.70;2.60;;;26.80;90.10;;;;;;5105794;28;20176;-64
2021/08/19 12:05:08;;;;;;;2.30;1.97;;;26.80;89.80;;;;;;5105173;28;20440;-64
2021/08/19 12:07:40;;;;;;;1.60;1.50;;;26.80;89.50;;;;;;5101146;28;20448;-64
2021/08/19 12:10:07;;;;;;;2.00;1.80;;;26.80;89.40;;;;;;5091244;28;20982;-64
2021/08/19 12:12:36;;;;;;;1.90;1.70;;;26.80;89.30;;;;;;5104140;28;20433;-64
2021/08/19 12:15:06;;;;;;;2.43;1.83;;;26.80;90.00;;;;;;5099258;28;20440;-65
2021/08/19 12:17:32;;;;;;;4.90;1.97;;;26.80;88.00;;;;;;5097412;28;20523;-64
2021/08/19 12:20:20;;;;;;;1.90;1.80;;;26.80;89.10;;;;;;5099851;28;20443;-64
2021/08/19 12:22:46;;;;;;;2.20;1.83;;;26.90;90.60;;;;;;5105301;28;20525;-64
2021/08/19 12:25:19;;;;;;;2.60;1.70;;;26.90;90.60;;;;;;5102501;28;20853;-64
2021/08/19 12:28:06;;;;;;;2.70;2.17;;;26.90;90.90;;;;;;5136658;27;20441;-65
2021/08/19 12:30:32;;;;;;;1.30;1.20;;;26.90;90.50;;;;;;5100179;28;20476;-64
2021/08/19 12:33:04;;;;;;;2.00;1.80;;;26.90;89.00;;;;;;5106249;28;20470;-64
2021/08/19 12:35:30;;;;;;;1.77;1.43;;;26.90;89.90;;;;;;5095658;28;20816;-64
2021/08/19 12:37:58;;;;;;;1.43;1.33;;;26.80;90.10;;;;;;5092883;28;20495;-65
2021/08/19 12:40:35;;;;;;;4.40;2.13;;;26.80;90.50;;;;;;5105871;28;21032;-64
2021/08/19 12:43:10;;;;;;;2.57;1.70;;;26.80;90.10;;;;;;5106386;28;20488;-64
2021/08/19 12:45:37;;;;;;;3.30;1.90;;;26.80;86.50;;;;;;5102692;28;20467;-64
2021/08/19 12:48:04;;;;;;;1.47;1.37;;;26.80;87.70;;;;;;5107775;28;20425;-66